sensor_id;sensor_type;location;lat;lon;timestamp;temperature;humidity
32660;DHT22;19064;47.912;12.308;2023-03-01T00:02:26;0.60;99.90
32660;DHT22;19064;47.912;12.308;2023-03-01T00:04:56;0.60;99.90
32660;DHT22;19064;47.912;12.308;2023-03-01T00:07:24;0.50;99.90
32660;DHT22;19064;47.912;12.308;2023-03-01T00:09:51;0.50;99.90
32660;DHT22;19064;47.912;12.308;2023-03-01T00:12:20;0.50;99.90
32660;DHT22;19064;47.912;12.308;2023-03-01T00:14:48;0.50;99.90
32660;DHT22;19064;47.912;12.308;2023-03-01T00:17:15;0.50;99.90
32660;DHT22;19064;47.912;12.308;2023-03-01T00:19:44;0.50;99.90
32660;DHT22;19064;47.912;12.308;2023-03-01T00:22:12;0.50;99.90
32660;DHT22;19064;47.912;12.308;2023-03-01T00:24:40;0.60;99.90
32660;DHT22;19064;47.912;12.308;2023-03-01T00:27:08;0.50;99.90
32660;DHT22;19064;47.912;12.308;2023-03-01T00:29:36;0.50;99.90
32660;DHT22;19064;47.912;12.308;2023-03-01T00:32:04;0.50;99.90
32660;DHT22;19064;47.912;12.308;2023-03-01T00:34:32;0.60;99.90
32660;DHT22;19064;47.912;12.308;2023-03-01T00:37:04;0.50;99.90
32660;DHT22;19064;47.912;12.308;2023-03-01T00:39:34;0.50;99.90
32660;DHT22;19064;47.912;12.308;2023-03-01T00:42:02;0.40;99.90
32660;DHT22;19064;47.912;12.308;2023-03-01T00:44:30;0.50;99.90
32660;DHT22;19064;47.912;12.308;2023-03-01T00:47:01;0.50;99.90
32660;DHT22;19064;47.912;12.308;2023-03-01T00:49:31;0.60;99.90
32660;DHT22;19064;47.912;12.308;2023-03-01T00:52:00;0.60;99.90
32660;DHT22;19064;47.912;12.308;2023-03-01T00:54:28;0.60;99.90
32660;DHT22;19064;47.912;12.308;2023-03-01T00:56:56;0.60;99.90
32660;DHT22;19064;47.912;12.308;2023-03-01T00:59:24;0.50;99.90
32660;DHT22;19064;47.912;12.308;2023-03-01T01:01:51;0.50;99.90
32660;DHT22;19064;47.912;12.308;2023-03-01T01:04:21;0.40;99.90
32660;DHT22;19064;47.912;12.308;2023-03-01T01:06:49;0.50;99.90
32660;DHT22;19064;47.912;12.308;2023-03-01T01:09:20;0.50;99.90
32660;DHT22;19064;47.912;12.308;2023-03-01T01:11:49;0.50;99.90
32660;DHT22;19064;47.912;12.308;2023-03-01T01:14:18;0.40;99.90
32660;DHT22;19064;47.912;12.308;2023-03-01T01:16:45;0.50;99.90
32660;DHT22;19064;47.912;12.308;2023-03-01T01:19:14;0.50;99.90
32660;DHT22;19064;47.912;12.308;2023-03-01T01:21:42;0.40;99.90
32660;DHT22;19064;47.912;12.308;2023-03-01T01:24:11;0.40;99.90
32660;DHT22;19064;47.912;12.308;2023-03-01T01:26:44;0.30;99.90
32660;DHT22;19064;47.912;12.308;2023-03-01T01:29:11;0.30;99.90
32660;DHT22;19064;47.912;12.308;2023-03-01T01:31:42;0.30;99.90
32660;DHT22;19064;47.912;12.308;2023-03-01T01:34:12;0.30;99.90
32660;DHT22;19064;47.912;12.308;2023-03-01T01:36:40;0.40;99.90
32660;DHT22;19064;47.912;12.308;2023-03-01T01:39:08;0.40;99.90
32660;DHT22;19064;47.912;12.308;2023-03-01T01:41:43;0.30;99.90
32660;DHT22;19064;47.912;12.308;2023-03-01T01:44:15;0.30;99.90
32660;DHT22;19064;47.912;12.308;2023-03-01T01:46:45;0.30;99.90
32660;DHT22;19064;47.912;12.308;2023-03-01T01:49:19;0.30;99.90
32660;DHT22;19064;47.912;12.308;2023-03-01T01:51:48;0.40;99.90
32660;DHT22;19064;47.912;12.308;2023-03-01T01:54:18;0.40;99.90
32660;DHT22;19064;47.912;12.308;2023-03-01T01:56:49;0.30;99.90
32660;DHT22;19064;47.912;12.308;2023-03-01T01:59:19;0.40;99.90
32660;DHT22;19064;47.912;12.308;2023-03-01T02:01:51;0.30;99.90
32660;DHT22;19064;47.912;12.308;2023-03-01T02:04:19;0.20;99.90
32660;DHT22;19064;47.912;12.308;2023-03-01T02:06:48;0.20;99.90
32660;DHT22;19064;47.912;12.308;2023-03-01T02:09:18;0.20;99.90
32660;DHT22;19064;47.912;12.308;2023-03-01T02:11:46;0.20;99.90
32660;DHT22;19064;47.912;12.308;2023-03-01T02:14:14;0.20;99.90
32660;DHT22;19064;47.912;12.308;2023-03-01T02:16:43;0.20;99.90
32660;DHT22;19064;47.912;12.308;2023-03-01T02:19:13;0.10;99.90
32660;DHT22;19064;47.912;12.308;2023-03-01T02:21:48;0.00;99.90
32660;DHT22;19064;47.912;12.308;2023-03-01T02:24:21;0.00;99.90
32660;DHT22;19064;47.912;12.308;2023-03-01T02:26:55;0.00;99.90
32660;DHT22;19064;47.912;12.308;2023-03-01T02:29:25;0.00;99.90
32660;DHT22;19064;47.912;12.308;2023-03-01T02:31:55;0.00;99.90
32660;DHT22;19064;47.912;12.308;2023-03-01T02:34:24;0.00;99.90
32660;DHT22;19064;47.912;12.308;2023-03-01T02:36:53;0.10;99.90
32660;DHT22;19064;47.912;12.308;2023-03-01T02:39:23;0.10;99.90
32660;DHT22;19064;47.912;12.308;2023-03-01T02:41:53;0.00;99.90
32660;DHT22;19064;47.912;12.308;2023-03-01T02:44:21;0.00;99.90
32660;DHT22;19064;47.912;12.308;2023-03-01T02:46:51;0.00;99.90
32660;DHT22;19064;47.912;12.308;2023-03-01T02:49:20;-0.10;99.90
32660;DHT22;19064;47.912;12.308;2023-03-01T02:51:52;-0.10;99.90
32660;DHT22;19064;47.912;12.308;2023-03-01T02:54:24;-0.10;99.90
32660;DHT22;19064;47.912;12.308;2023-03-01T02:56:53;-0.10;99.90
32660;DHT22;19064;47.912;12.308;2023-03-01T02:59:21;-0.10;99.90
32660;DHT22;19064;47.912;12.308;2023-03-01T03:01:51;-0.10;99.90
32660;DHT22;19064;47.912;12.308;2023-03-01T03:04:19;-0.20;99.90
32660;DHT22;19064;47.912;12.308;2023-03-01T03:06:48;-0.20;99.90
32660;DHT22;19064;47.912;12.308;2023-03-01T03:09:16;-0.20;99.90
32660;DHT22;19064;47.912;12.308;2023-03-01T03:11:44;-0.30;99.90
32660;DHT22;19064;47.912;12.308;2023-03-01T03:14:13;-0.30;99.90
32660;DHT22;19064;47.912;12.308;2023-03-01T03:16:41;-0.30;99.90
32660;DHT22;19064;47.912;12.308;2023-03-01T03:19:15;-0.20;99.90
32660;DHT22;19064;47.912;12.308;2023-03-01T03:21:43;-0.20;99.90
32660;DHT22;19064;47.912;12.308;2023-03-01T03:24:12;-0.20;99.90
32660;DHT22;19064;47.912;12.308;2023-03-01T03:26:40;-0.30;99.90
32660;DHT22;19064;47.912;12.308;2023-03-01T03:29:08;-0.30;99.90
32660;DHT22;19064;47.912;12.308;2023-03-01T03:31:36;-0.30;99.90
32660;DHT22;19064;47.912;12.308;2023-03-01T03:34:04;-0.30;99.90
32660;DHT22;19064;47.912;12.308;2023-03-01T03:36:33;-0.20;99.90
32660;DHT22;19064;47.912;12.308;2023-03-01T03:39:04;-0.30;99.90
32660;DHT22;19064;47.912;12.308;2023-03-01T03:41:34;-0.30;99.90
32660;DHT22;19064;47.912;12.308;2023-03-01T03:44:02;-0.40;99.90
32660;DHT22;19064;47.912;12.308;2023-03-01T03:46:29;-0.40;99.90
32660;DHT22;19064;47.912;12.308;2023-03-01T03:48:57;-0.40;99.90
32660;DHT22;19064;47.912;12.308;2023-03-01T03:51:25;-0.40;99.90
32660;DHT22;19064;47.912;12.308;2023-03-01T03:53:54;-0.40;99.90
32660;DHT22;19064;47.912;12.308;2023-03-01T03:56:22;-0.40;99.90
32660;DHT22;19064;47.912;12.308;2023-03-01T03:58:52;-0.50;99.90
32660;DHT22;19064;47.912;12.308;2023-03-01T04:01:20;-0.60;99.90
32660;DHT22;19064;47.912;12.308;2023-03-01T04:03:48;-0.50;99.90
32660;DHT22;19064;47.912;12.308;2023-03-01T04:06:21;-0.50;99.90
32660;DHT22;19064;47.912;12.308;2023-03-01T04:08:49;-0.50;99.90
32660;DHT22;19064;47.912;12.308;2023-03-01T04:11:19;-0.50;99.90
32660;DHT22;19064;47.912;12.308;2023-03-01T04:13:54;-0.40;99.90
32660;DHT22;19064;47.912;12.308;2023-03-01T04:16:22;-0.40;99.90
32660;DHT22;19064;47.912;12.308;2023-03-01T04:18:50;-0.50;99.90
32660;DHT22;19064;47.912;12.308;2023-03-01T04:21:19;-0.50;99.90
32660;DHT22;19064;47.912;12.308;2023-03-01T04:23:46;-0.40;99.90
32660;DHT22;19064;47.912;12.308;2023-03-01T04:26:14;-0.50;99.90
32660;DHT22;19064;47.912;12.308;2023-03-01T04:28:44;-0.50;99.90
32660;DHT22;19064;47.912;12.308;2023-03-01T04:31:14;-0.50;99.90
32660;DHT22;19064;47.912;12.308;2023-03-01T04:33:44;-0.60;99.90
32660;DHT22;19064;47.912;12.308;2023-03-01T04:36:13;-0.60;99.90
32660;DHT22;19064;47.912;12.308;2023-03-01T04:38:42;-0.60;99.90
32660;DHT22;19064;47.912;12.308;2023-03-01T04:41:14;-0.70;99.90
32660;DHT22;19064;47.912;12.308;2023-03-01T04:43:41;-0.70;99.90
32660;DHT22;19064;47.912;12.308;2023-03-01T04:46:13;-0.70;99.90
32660;DHT22;19064;47.912;12.308;2023-03-01T04:48:42;-0.80;99.90
32660;DHT22;19064;47.912;12.308;2023-03-01T04:51:10;-0.80;99.90
32660;DHT22;19064;47.912;12.308;2023-03-01T04:53:40;-0.80;99.90
32660;DHT22;19064;47.912;12.308;2023-03-01T04:56:08;-0.80;99.90
32660;DHT22;19064;47.912;12.308;2023-03-01T04:58:40;-0.80;99.90
32660;DHT22;19064;47.912;12.308;2023-03-01T05:01:13;-0.80;99.90
32660;DHT22;19064;47.912;12.308;2023-03-01T05:03:42;-0.80;99.90
32660;DHT22;19064;47.912;12.308;2023-03-01T05:06:11;-0.80;99.90
32660;DHT22;19064;47.912;12.308;2023-03-01T05:08:39;-0.90;99.90
32660;DHT22;19064;47.912;12.308;2023-03-01T05:11:07;-0.90;99.90
32660;DHT22;19064;47.912;12.308;2023-03-01T05:13:36;-0.90;99.90
32660;DHT22;19064;47.912;12.308;2023-03-01T05:16:05;-0.90;99.90
32660;DHT22;19064;47.912;12.308;2023-03-01T05:18:39;-0.90;99.90
32660;DHT22;19064;47.912;12.308;2023-03-01T05:21:11;-1.00;99.90
32660;DHT22;19064;47.912;12.308;2023-03-01T05:23:39;-1.00;99.90
32660;DHT22;19064;47.912;12.308;2023-03-01T05:26:21;-1.00;99.90
32660;DHT22;19064;47.912;12.308;2023-03-01T05:28:53;-1.00;99.90
32660;DHT22;19064;47.912;12.308;2023-03-01T05:31:25;-1.00;99.90
32660;DHT22;19064;47.912;12.308;2023-03-01T05:33:54;-1.00;99.90
32660;DHT22;19064;47.912;12.308;2023-03-01T05:36:22;-1.00;99.90
32660;DHT22;19064;47.912;12.308;2023-03-01T05:38:51;-1.00;99.90
32660;DHT22;19064;47.912;12.308;2023-03-01T05:41:19;-1.00;99.90
32660;DHT22;19064;47.912;12.308;2023-03-01T05:43:47;-0.90;99.90
32660;DHT22;19064;47.912;12.308;2023-03-01T05:46:16;-0.90;99.90
32660;DHT22;19064;47.912;12.308;2023-03-01T05:48:46;-0.90;99.90
32660;DHT22;19064;47.912;12.308;2023-03-01T05:51:15;-1.00;99.90
32660;DHT22;19064;47.912;12.308;2023-03-01T05:53:44;-0.90;99.90
32660;DHT22;19064;47.912;12.308;2023-03-01T05:56:12;-0.90;99.90
32660;DHT22;19064;47.912;12.308;2023-03-01T05:58:39;-0.90;99.90
32660;DHT22;19064;47.912;12.308;2023-03-01T06:01:10;-0.90;99.90
32660;DHT22;19064;47.912;12.308;2023-03-01T06:03:40;-1.00;99.90
32660;DHT22;19064;47.912;12.308;2023-03-01T06:06:12;-1.00;99.90
32660;DHT22;19064;47.912;12.308;2023-03-01T06:08:42;-1.00;99.90
32660;DHT22;19064;47.912;12.308;2023-03-01T06:11:10;-1.00;99.90
32660;DHT22;19064;47.912;12.308;2023-03-01T06:13:40;-0.90;99.90
32660;DHT22;19064;47.912;12.308;2023-03-01T06:16:10;-1.00;99.90
32660;DHT22;19064;47.912;12.308;2023-03-01T06:18:41;-0.90;99.90
32660;DHT22;19064;47.912;12.308;2023-03-01T06:21:09;-0.90;99.90
32660;DHT22;19064;47.912;12.308;2023-03-01T06:23:37;-1.00;99.90
32660;DHT22;19064;47.912;12.308;2023-03-01T06:26:09;-1.00;99.90
32660;DHT22;19064;47.912;12.308;2023-03-01T06:28:40;-1.00;99.90
32660;DHT22;19064;47.912;12.308;2023-03-01T06:31:12;-1.00;99.90
32660;DHT22;19064;47.912;12.308;2023-03-01T06:33:40;-1.00;99.90
32660;DHT22;19064;47.912;12.308;2023-03-01T06:36:08;-1.00;99.90
32660;DHT22;19064;47.912;12.308;2023-03-01T06:38:39;-1.00;99.90
32660;DHT22;19064;47.912;12.308;2023-03-01T06:41:15;-1.00;99.90
32660;DHT22;19064;47.912;12.308;2023-03-01T06:43:43;-1.00;99.90
32660;DHT22;19064;47.912;12.308;2023-03-01T06:46:11;-1.00;99.90
32660;DHT22;19064;47.912;12.308;2023-03-01T06:48:41;-1.00;99.90
32660;DHT22;19064;47.912;12.308;2023-03-01T06:51:09;-1.00;99.90
32660;DHT22;19064;47.912;12.308;2023-03-01T06:53:36;-0.90;99.90
32660;DHT22;19064;47.912;12.308;2023-03-01T06:56:05;-1.00;99.90
32660;DHT22;19064;47.912;12.308;2023-03-01T06:58:34;-0.90;99.90
32660;DHT22;19064;47.912;12.308;2023-03-01T07:01:04;-1.00;99.90
32660;DHT22;19064;47.912;12.308;2023-03-01T07:03:32;-1.00;99.90
32660;DHT22;19064;47.912;12.308;2023-03-01T07:06:00;-0.90;99.90
32660;DHT22;19064;47.912;12.308;2023-03-01T07:08:28;-0.90;99.90
32660;DHT22;19064;47.912;12.308;2023-03-01T07:10:55;-1.00;99.90
32660;DHT22;19064;47.912;12.308;2023-03-01T07:13:23;-0.90;99.90
32660;DHT22;19064;47.912;12.308;2023-03-01T07:15:53;-0.90;99.90
32660;DHT22;19064;47.912;12.308;2023-03-01T07:18:21;-0.90;99.90
32660;DHT22;19064;47.912;12.308;2023-03-01T07:20:49;-0.90;99.90
32660;DHT22;19064;47.912;12.308;2023-03-01T07:23:16;-0.90;99.90
32660;DHT22;19064;47.912;12.308;2023-03-01T07:25:44;-0.90;99.90
32660;DHT22;19064;47.912;12.308;2023-03-01T07:28:12;-0.90;99.90
32660;DHT22;19064;47.912;12.308;2023-03-01T07:30:40;-0.80;99.90
32660;DHT22;19064;47.912;12.308;2023-03-01T07:33:09;-0.80;99.90
32660;DHT22;19064;47.912;12.308;2023-03-01T07:35:46;-0.70;99.90
32660;DHT22;19064;47.912;12.308;2023-03-01T07:38:14;-0.70;99.90
32660;DHT22;19064;47.912;12.308;2023-03-01T07:40:42;-0.70;99.90
32660;DHT22;19064;47.912;12.308;2023-03-01T07:43:10;-0.70;99.90
32660;DHT22;19064;47.912;12.308;2023-03-01T07:45:40;-0.80;99.90
32660;DHT22;19064;47.912;12.308;2023-03-01T07:48:07;-0.70;99.90
32660;DHT22;19064;47.912;12.308;2023-03-01T07:50:37;-0.60;99.90
32660;DHT22;19064;47.912;12.308;2023-03-01T07:53:05;-0.70;99.90
32660;DHT22;19064;47.912;12.308;2023-03-01T07:55:33;-0.70;99.90
32660;DHT22;19064;47.912;12.308;2023-03-01T07:58:03;-0.60;99.90
32660;DHT22;19064;47.912;12.308;2023-03-01T08:00:31;-0.50;99.90
32660;DHT22;19064;47.912;12.308;2023-03-01T08:03:02;-0.40;99.90
32660;DHT22;19064;47.912;12.308;2023-03-01T08:05:30;-0.30;99.90
32660;DHT22;19064;47.912;12.308;2023-03-01T08:08:00;-0.20;99.90
32660;DHT22;19064;47.912;12.308;2023-03-01T08:10:28;-0.30;99.90
32660;DHT22;19064;47.912;12.308;2023-03-01T08:12:55;-0.40;99.90
32660;DHT22;19064;47.912;12.308;2023-03-01T08:15:23;-0.50;99.90
32660;DHT22;19064;47.912;12.308;2023-03-01T08:17:51;-0.40;99.90
32660;DHT22;19064;47.912;12.308;2023-03-01T08:20:18;-0.40;99.90
32660;DHT22;19064;47.912;12.308;2023-03-01T08:22:45;-0.40;99.90
32660;DHT22;19064;47.912;12.308;2023-03-01T08:25:15;-0.40;99.90
32660;DHT22;19064;47.912;12.308;2023-03-01T08:27:43;-0.20;99.90
32660;DHT22;19064;47.912;12.308;2023-03-01T08:30:11;-0.20;99.90
32660;DHT22;19064;47.912;12.308;2023-03-01T08:32:39;-0.20;99.90
32660;DHT22;19064;47.912;12.308;2023-03-01T08:35:07;-0.20;99.90
32660;DHT22;19064;47.912;12.308;2023-03-01T08:37:37;-0.10;99.90
32660;DHT22;19064;47.912;12.308;2023-03-01T08:40:04;0.00;99.90
32660;DHT22;19064;47.912;12.308;2023-03-01T08:42:35;0.00;99.90
32660;DHT22;19064;47.912;12.308;2023-03-01T08:45:02;0.00;99.90
32660;DHT22;19064;47.912;12.308;2023-03-01T08:47:29;0.10;99.90
32660;DHT22;19064;47.912;12.308;2023-03-01T08:49:57;0.10;99.90
32660;DHT22;19064;47.912;12.308;2023-03-01T08:52:24;0.10;99.90
32660;DHT22;19064;47.912;12.308;2023-03-01T08:54:51;0.20;99.90
32660;DHT22;19064;47.912;12.308;2023-03-01T08:57:17;0.10;99.90
32660;DHT22;19064;47.912;12.308;2023-03-01T08:59:45;0.20;99.90
32660;DHT22;19064;47.912;12.308;2023-03-01T09:02:13;0.30;99.90
32660;DHT22;19064;47.912;12.308;2023-03-01T09:04:40;0.40;99.90
32660;DHT22;19064;47.912;12.308;2023-03-01T09:07:06;0.40;99.90
32660;DHT22;19064;47.912;12.308;2023-03-01T09:09:34;0.50;99.90
32660;DHT22;19064;47.912;12.308;2023-03-01T09:12:02;0.60;99.90
32660;DHT22;19064;47.912;12.308;2023-03-01T09:14:29;0.70;99.90
32660;DHT22;19064;47.912;12.308;2023-03-01T09:16:58;0.80;99.90
32660;DHT22;19064;47.912;12.308;2023-03-01T09:19:29;0.90;99.90
32660;DHT22;19064;47.912;12.308;2023-03-01T09:21:55;1.00;99.90
32660;DHT22;19064;47.912;12.308;2023-03-01T09:24:23;1.00;99.90
32660;DHT22;19064;47.912;12.308;2023-03-01T09:26:52;0.90;99.90
32660;DHT22;19064;47.912;12.308;2023-03-01T09:29:20;0.80;99.90
32660;DHT22;19064;47.912;12.308;2023-03-01T09:31:49;0.80;99.90
32660;DHT22;19064;47.912;12.308;2023-03-01T09:34:28;0.80;99.90
32660;DHT22;19064;47.912;12.308;2023-03-01T09:36:57;0.80;99.90
32660;DHT22;19064;47.912;12.308;2023-03-01T09:39:25;1.00;99.90
32660;DHT22;19064;47.912;12.308;2023-03-01T09:41:57;1.00;99.90
32660;DHT22;19064;47.912;12.308;2023-03-01T09:44:29;1.00;99.90
32660;DHT22;19064;47.912;12.308;2023-03-01T09:46:59;1.10;99.90
32660;DHT22;19064;47.912;12.308;2023-03-01T09:49:29;1.10;99.90
32660;DHT22;19064;47.912;12.308;2023-03-01T09:51:59;1.20;99.90
32660;DHT22;19064;47.912;12.308;2023-03-01T09:54:27;1.30;99.90
32660;DHT22;19064;47.912;12.308;2023-03-01T09:57:05;1.30;99.90
32660;DHT22;19064;47.912;12.308;2023-03-01T09:59:37;1.50;99.90
32660;DHT22;19064;47.912;12.308;2023-03-01T10:02:12;1.30;99.90
32660;DHT22;19064;47.912;12.308;2023-03-01T10:04:45;1.30;99.90
32660;DHT22;19064;47.912;12.308;2023-03-01T10:07:17;1.30;99.90
32660;DHT22;19064;47.912;12.308;2023-03-01T10:09:50;1.20;99.90
32660;DHT22;19064;47.912;12.308;2023-03-01T10:12:19;1.30;99.90
32660;DHT22;19064;47.912;12.308;2023-03-01T10:14:57;1.40;99.90
32660;DHT22;19064;47.912;12.308;2023-03-01T10:17:27;1.40;99.90
32660;DHT22;19064;47.912;12.308;2023-03-01T10:20:01;1.50;99.90
32660;DHT22;19064;47.912;12.308;2023-03-01T10:22:38;1.40;99.90
32660;DHT22;19064;47.912;12.308;2023-03-01T10:25:05;1.50;99.90
32660;DHT22;19064;47.912;12.308;2023-03-01T10:27:38;1.50;99.90
32660;DHT22;19064;47.912;12.308;2023-03-01T10:30:12;1.50;99.90
32660;DHT22;19064;47.912;12.308;2023-03-01T10:32:42;1.50;99.90
32660;DHT22;19064;47.912;12.308;2023-03-01T10:35:19;1.60;99.90
32660;DHT22;19064;47.912;12.308;2023-03-01T10:38:02;1.70;99.90
32660;DHT22;19064;47.912;12.308;2023-03-01T10:40:31;1.90;99.90
32660;DHT22;19064;47.912;12.308;2023-03-01T10:42:59;2.00;99.90
32660;DHT22;19064;47.912;12.308;2023-03-01T10:45:31;1.90;99.90
32660;DHT22;19064;47.912;12.308;2023-03-01T10:48:10;2.10;99.90
32660;DHT22;19064;47.912;12.308;2023-03-01T10:50:44;2.00;99.90
32660;DHT22;19064;47.912;12.308;2023-03-01T10:53:22;2.00;99.90
32660;DHT22;19064;47.912;12.308;2023-03-01T10:56:01;1.90;99.90
32660;DHT22;19064;47.912;12.308;2023-03-01T10:58:29;1.90;99.90
32660;DHT22;19064;47.912;12.308;2023-03-01T11:00:59;1.80;99.90
32660;DHT22;19064;47.912;12.308;2023-03-01T11:03:28;2.00;99.90
32660;DHT22;19064;47.912;12.308;2023-03-01T11:06:05;2.00;99.90
32660;DHT22;19064;47.912;12.308;2023-03-01T11:08:48;2.00;99.90
32660;DHT22;19064;47.912;12.308;2023-03-01T11:11:32;1.70;99.90
32660;DHT22;19064;47.912;12.308;2023-03-01T11:14:00;1.60;99.90
32660;DHT22;19064;47.912;12.308;2023-03-01T11:16:31;1.50;99.90
32660;DHT22;19064;47.912;12.308;2023-03-01T11:19:00;1.50;99.90
32660;DHT22;19064;47.912;12.308;2023-03-01T11:21:30;1.60;99.90
32660;DHT22;19064;47.912;12.308;2023-03-01T11:24:03;1.90;99.90
32660;DHT22;19064;47.912;12.308;2023-03-01T11:26:32;1.90;99.90
32660;DHT22;19064;47.912;12.308;2023-03-01T11:29:03;1.80;99.90
32660;DHT22;19064;47.912;12.308;2023-03-01T11:31:32;1.80;99.90
32660;DHT22;19064;47.912;12.308;2023-03-01T11:34:04;1.80;99.90
32660;DHT22;19064;47.912;12.308;2023-03-01T11:36:34;1.80;99.90
32660;DHT22;19064;47.912;12.308;2023-03-01T11:39:05;1.80;99.90
32660;DHT22;19064;47.912;12.308;2023-03-01T11:41:40;1.90;99.90
32660;DHT22;19064;47.912;12.308;2023-03-01T11:44:10;1.90;99.90
32660;DHT22;19064;47.912;12.308;2023-03-01T11:46:47;1.80;99.90
32660;DHT22;19064;47.912;12.308;2023-03-01T11:52:03;2.10;99.90
32660;DHT22;19064;47.912;12.308;2023-03-01T11:54:38;2.10;99.90
32660;DHT22;19064;47.912;12.308;2023-03-01T11:57:11;2.20;99.90
32660;DHT22;19064;47.912;12.308;2023-03-01T11:59:48;2.10;99.90
32660;DHT22;19064;47.912;12.308;2023-03-01T12:02:20;2.20;99.90
32660;DHT22;19064;47.912;12.308;2023-03-01T12:07:46;2.20;99.90
32660;DHT22;19064;47.912;12.308;2023-03-01T12:10:28;2.30;99.90
32660;DHT22;19064;47.912;12.308;2023-03-01T12:15:42;2.20;99.90
32660;DHT22;19064;47.912;12.308;2023-03-01T12:20:56;2.30;99.90
32660;DHT22;19064;47.912;12.308;2023-03-01T12:26:08;2.20;99.90
32660;DHT22;19064;47.912;12.308;2023-03-01T12:28:50;2.20;99.90
32660;DHT22;19064;47.912;12.308;2023-03-01T12:31:33;2.10;99.90
32660;DHT22;19064;47.912;12.308;2023-03-01T12:34:07;2.10;99.90
32660;DHT22;19064;47.912;12.308;2023-03-01T12:36:49;2.10;99.90
32660;DHT22;19064;47.912;12.308;2023-03-01T12:39:24;2.10;99.90
32660;DHT22;19064;47.912;12.308;2023-03-01T12:42:01;2.10;99.90
32660;DHT22;19064;47.912;12.308;2023-03-01T12:44:41;2.10;99.90
32660;DHT22;19064;47.912;12.308;2023-03-01T12:47:16;2.10;99.90
32660;DHT22;19064;47.912;12.308;2023-03-01T12:49:45;2.20;99.90
32660;DHT22;19064;47.912;12.308;2023-03-01T12:52:15;2.20;99.90
32660;DHT22;19064;47.912;12.308;2023-03-01T12:54:43;2.30;99.90
32660;DHT22;19064;47.912;12.308;2023-03-01T12:57:15;2.30;99.90
32660;DHT22;19064;47.912;12.308;2023-03-01T12:59:47;2.40;99.90
32660;DHT22;19064;47.912;12.308;2023-03-01T13:02:19;2.50;99.90
32660;DHT22;19064;47.912;12.308;2023-03-01T13:04:53;2.50;99.90
32660;DHT22;19064;47.912;12.308;2023-03-01T13:07:28;2.50;99.90
32660;DHT22;19064;47.912;12.308;2023-03-01T13:10:00;2.50;99.90
32660;DHT22;19064;47.912;12.308;2023-03-01T13:12:53;2.50;99.90
32660;DHT22;19064;47.912;12.308;2023-03-01T13:15:28;2.50;99.90
32660;DHT22;19064;47.912;12.308;2023-03-01T13:17:56;2.60;99.90
32660;DHT22;19064;47.912;12.308;2023-03-01T13:20:26;2.70;99.90
32660;DHT22;19064;47.912;12.308;2023-03-01T13:23:03;2.70;99.90
32660;DHT22;19064;47.912;12.308;2023-03-01T13:25:31;2.60;99.90
32660;DHT22;19064;47.912;12.308;2023-03-01T13:30:42;2.80;99.90
32660;DHT22;19064;47.912;12.308;2023-03-01T13:33:32;2.90;99.90
32660;DHT22;19064;47.912;12.308;2023-03-01T13:36:03;2.80;99.90
32660;DHT22;19064;47.912;12.308;2023-03-01T13:38:39;2.80;99.90
32660;DHT22;19064;47.912;12.308;2023-03-01T13:41:12;2.80;99.90
32660;DHT22;19064;47.912;12.308;2023-03-01T13:43:41;2.80;99.90
32660;DHT22;19064;47.912;12.308;2023-03-01T13:46:12;2.80;99.90
32660;DHT22;19064;47.912;12.308;2023-03-01T13:48:44;2.90;99.90
32660;DHT22;19064;47.912;12.308;2023-03-01T13:51:12;2.90;99.90
32660;DHT22;19064;47.912;12.308;2023-03-01T13:53:42;2.90;99.90
32660;DHT22;19064;47.912;12.308;2023-03-01T13:56:11;3.00;99.90
32660;DHT22;19064;47.912;12.308;2023-03-01T13:58:49;3.00;99.90
32660;DHT22;19064;47.912;12.308;2023-03-01T14:01:23;3.00;99.90
32660;DHT22;19064;47.912;12.308;2023-03-01T14:03:50;3.00;99.90
32660;DHT22;19064;47.912;12.308;2023-03-01T14:06:20;3.00;99.90
32660;DHT22;19064;47.912;12.308;2023-03-01T14:08:48;3.00;99.90
32660;DHT22;19064;47.912;12.308;2023-03-01T14:11:24;3.10;99.90
32660;DHT22;19064;47.912;12.308;2023-03-01T14:13:58;3.10;99.90
32660;DHT22;19064;47.912;12.308;2023-03-01T14:16:31;3.10;99.90
32660;DHT22;19064;47.912;12.308;2023-03-01T14:19:03;3.00;99.90
32660;DHT22;19064;47.912;12.308;2023-03-01T14:21:32;3.00;99.90
32660;DHT22;19064;47.912;12.308;2023-03-01T14:23:58;2.90;99.90
32660;DHT22;19064;47.912;12.308;2023-03-01T14:26:25;2.90;99.90
32660;DHT22;19064;47.912;12.308;2023-03-01T14:28:52;2.90;99.90
32660;DHT22;19064;47.912;12.308;2023-03-01T14:31:36;2.90;99.90
32660;DHT22;19064;47.912;12.308;2023-03-01T14:34:03;2.90;99.90
32660;DHT22;19064;47.912;12.308;2023-03-01T14:36:31;2.90;99.90
32660;DHT22;19064;47.912;12.308;2023-03-01T14:38:57;2.90;99.90
32660;DHT22;19064;47.912;12.308;2023-03-01T14:41:31;2.90;99.90
32660;DHT22;19064;47.912;12.308;2023-03-01T14:43:58;3.00;99.90
32660;DHT22;19064;47.912;12.308;2023-03-01T14:46:26;2.90;99.90
32660;DHT22;19064;47.912;12.308;2023-03-01T14:48:58;2.90;99.90
32660;DHT22;19064;47.912;12.308;2023-03-01T14:51:27;2.90;99.90
32660;DHT22;19064;47.912;12.308;2023-03-01T14:53:54;2.80;99.90
32660;DHT22;19064;47.912;12.308;2023-03-01T14:56:21;2.80;99.90
32660;DHT22;19064;47.912;12.308;2023-03-01T14:58:50;2.80;99.90
32660;DHT22;19064;47.912;12.308;2023-03-01T15:01:17;2.80;99.90
32660;DHT22;19064;47.912;12.308;2023-03-01T15:03:45;2.80;99.90
32660;DHT22;19064;47.912;12.308;2023-03-01T15:06:14;2.80;99.90
32660;DHT22;19064;47.912;12.308;2023-03-01T15:08:42;2.80;99.90
32660;DHT22;19064;47.912;12.308;2023-03-01T15:11:17;2.80;99.90
32660;DHT22;19064;47.912;12.308;2023-03-01T15:13:47;2.80;99.90
32660;DHT22;19064;47.912;12.308;2023-03-01T15:16:14;2.80;99.90
32660;DHT22;19064;47.912;12.308;2023-03-01T15:18:43;2.80;99.90
32660;DHT22;19064;47.912;12.308;2023-03-01T15:21:17;2.80;99.90
32660;DHT22;19064;47.912;12.308;2023-03-01T15:23:48;2.80;99.90
32660;DHT22;19064;47.912;12.308;2023-03-01T15:26:21;2.80;99.90
32660;DHT22;19064;47.912;12.308;2023-03-01T15:28:48;2.80;99.90
32660;DHT22;19064;47.912;12.308;2023-03-01T15:31:17;2.70;99.90
32660;DHT22;19064;47.912;12.308;2023-03-01T15:33:44;2.70;99.90
32660;DHT22;19064;47.912;12.308;2023-03-01T15:36:30;2.60;99.90
32660;DHT22;19064;47.912;12.308;2023-03-01T15:38:58;2.60;99.90
32660;DHT22;19064;47.912;12.308;2023-03-01T15:41:26;2.50;99.90
32660;DHT22;19064;47.912;12.308;2023-03-01T15:43:53;2.60;99.90
32660;DHT22;19064;47.912;12.308;2023-03-01T15:46:25;2.70;99.90
32660;DHT22;19064;47.912;12.308;2023-03-01T15:48:53;2.70;99.90
32660;DHT22;19064;47.912;12.308;2023-03-01T15:51:22;2.60;99.90
32660;DHT22;19064;47.912;12.308;2023-03-01T15:53:51;2.50;99.90
32660;DHT22;19064;47.912;12.308;2023-03-01T15:56:18;2.50;99.90
32660;DHT22;19064;47.912;12.308;2023-03-01T15:58:45;2.40;99.90
32660;DHT22;19064;47.912;12.308;2023-03-01T16:01:12;2.40;99.90